createdAt,value
2022-08-17T00:02:26.120Z,20.43
2022-08-17T00:04:54.588Z,20.52
2022-08-17T00:07:21.289Z,20.38
2022-08-17T00:09:48.244Z,20.28
2022-08-17T00:12:51.381Z,20.23
2022-08-17T00:15:02.186Z,20.25
2022-08-17T00:17:29.115Z,20.17
2022-08-17T00:19:55.835Z,20.32
2022-08-17T00:22:33.777Z,20.14
2022-08-17T00:25:08.344Z,20.22
2022-08-17T00:27:35.755Z,20.18
2022-08-17T00:30:04.159Z,20.16
2022-08-17T00:33:12.651Z,20.12
2022-08-17T00:35:27.880Z,20.20
2022-08-17T00:37:55.433Z,20.20
2022-08-17T00:40:22.618Z,20.18
2022-08-17T00:42:52.057Z,20.16
2022-08-17T00:45:20.420Z,20.03
2022-08-17T00:47:48.468Z,20.02
2022-08-17T00:50:17.933Z,20.06
2022-08-17T00:52:54.901Z,20.08
2022-08-17T00:55:23.990Z,20.15
2022-08-17T00:57:56.191Z,20.16
2022-08-17T01:00:39.493Z,20.16
2022-08-17T01:03:11.936Z,20.16
2022-08-17T01:05:42.397Z,20.13
2022-08-17T01:08:13.078Z,20.14
2022-08-17T01:10:58.444Z,20.18
2022-08-17T01:13:41.283Z,20.17
2022-08-17T01:16:15.967Z,19.88
2022-08-17T01:18:44.663Z,20.05
2022-08-17T01:21:20.246Z,19.90
2022-08-17T01:23:46.973Z,20.09
2022-08-17T01:26:13.725Z,19.95
2022-08-17T01:28:53.712Z,20.11
2022-08-17T01:31:23.490Z,19.86
2022-08-17T01:33:50.171Z,19.76
2022-08-17T01:36:16.815Z,19.51
2022-08-17T01:38:43.572Z,19.47
2022-08-17T01:41:14.412Z,19.58
2022-08-17T01:43:49.604Z,19.29
2022-08-17T01:46:29.171Z,19.17
2022-08-17T01:48:57.747Z,19.14
2022-08-17T01:51:29.327Z,19.37
2022-08-17T01:53:58.247Z,19.34
2022-08-17T01:56:26.926Z,19.39
2022-08-17T01:58:53.948Z,19.42
2022-08-17T02:01:26.617Z,19.44
2022-08-17T02:03:59.452Z,19.51
2022-08-17T02:06:30.265Z,19.45
2022-08-17T02:09:03.168Z,19.31
2022-08-17T02:11:33.525Z,19.20
2022-08-17T02:14:03.723Z,18.88
2022-08-17T02:16:37.125Z,18.60
2022-08-17T02:19:07.968Z,18.50
2022-08-17T02:21:36.383Z,18.31
2022-08-17T02:24:04.879Z,18.45
2022-08-17T02:26:31.694Z,18.62
2022-08-17T02:28:58.341Z,18.85
2022-08-17T02:31:25.022Z,18.96
2022-08-17T02:34:03.363Z,19.04
2022-08-17T02:36:31.250Z,19.18
2022-08-17T02:38:58.699Z,19.18
2022-08-17T02:41:25.608Z,19.30
2022-08-17T02:43:53.568Z,19.27
2022-08-17T02:46:20.220Z,19.33
2022-08-17T02:48:47.312Z,19.29
2022-08-17T02:51:14.290Z,19.43
2022-08-17T02:53:41.089Z,19.25
2022-08-17T02:56:07.793Z,19.29
2022-08-17T02:58:35.972Z,19.31
2022-08-17T03:01:08.808Z,19.40
2022-08-17T03:03:36.974Z,19.40
2022-08-17T03:06:04.712Z,19.23
2022-08-17T03:08:31.756Z,19.14
2022-08-17T03:10:58.482Z,19.03
2022-08-17T03:13:25.576Z,18.98
2022-08-17T03:15:52.206Z,19.00
2022-08-17T03:18:25.588Z,19.02
2022-08-17T03:20:58.753Z,19.13
2022-08-17T03:23:26.442Z,18.94
2022-08-17T03:25:55.213Z,18.82
2022-08-17T03:28:23.295Z,18.84
2022-08-17T03:30:51.252Z,18.94
2022-08-17T03:33:18.905Z,18.87
2022-08-17T03:35:45.874Z,18.96
2022-08-17T03:38:15.369Z,19.11
2022-08-17T03:40:58.021Z,19.06
2022-08-17T03:43:28.214Z,19.21
2022-08-17T03:46:34.581Z,19.18
2022-08-17T03:49:18.456Z,19.07
2022-08-17T03:52:03.794Z,19.00
2022-08-17T03:54:49.046Z,19.11
2022-08-17T03:57:16.367Z,19.18
2022-08-17T03:59:43.429Z,19.19
2022-08-17T04:02:21.360Z,19.28
2022-08-17T04:04:50.879Z,19.30
2022-08-17T04:07:23.520Z,19.50
2022-08-17T04:09:50.207Z,19.51
2022-08-17T04:12:19.065Z,19.59
2022-08-17T04:14:53.223Z,19.35
2022-08-17T04:17:27.830Z,19.40
2022-08-17T04:19:55.686Z,19.38
2022-08-17T04:22:30.869Z,19.54
2022-08-17T04:25:15.724Z,19.65
2022-08-17T04:27:42.375Z,19.44
2022-08-17T04:30:09.823Z,18.93
2022-08-17T04:33:05.527Z,18.70
2022-08-17T04:35:37.718Z,18.96
2022-08-17T04:38:05.131Z,19.02
2022-08-17T04:40:50.747Z,19.13
2022-08-17T04:43:20.930Z,19.03
2022-08-17T04:45:55.994Z,19.39
2022-08-17T04:48:34.807Z,19.45
2022-08-17T04:51:10.580Z,19.46
2022-08-17T04:53:39.200Z,19.62
2022-08-17T04:56:06.247Z,19.70
2022-08-17T04:58:33.253Z,19.89
2022-08-17T05:01:00.068Z,20.13
2022-08-17T05:03:27.062Z,20.03
2022-08-17T05:05:54.095Z,20.01
2022-08-17T05:08:20.951Z,20.06
2022-08-17T05:10:48.750Z,19.96
2022-08-17T05:13:27.223Z,19.87
2022-08-17T05:15:57.305Z,19.98
2022-08-17T05:18:24.965Z,20.12
2022-08-17T05:20:52.379Z,20.21
2022-08-17T05:23:21.632Z,20.25
2022-08-17T05:25:51.553Z,20.34
2022-08-17T05:28:24.105Z,20.37
2022-08-17T05:30:57.146Z,20.43
2022-08-17T05:33:27.452Z,20.55
2022-08-17T05:35:58.007Z,20.66
2022-08-17T05:38:27.423Z,20.90
2022-08-17T05:40:55.212Z,21.05
2022-08-17T05:43:28.627Z,21.28
2022-08-17T05:46:03.372Z,21.45
2022-08-17T05:48:43.514Z,21.64
2022-08-17T05:51:47.000Z,21.92
2022-08-17T05:54:19.474Z,22.10
2022-08-17T05:57:16.746Z,22.10
2022-08-17T05:59:58.943Z,22.37
2022-08-17T06:02:38.004Z,22.56
2022-08-17T06:05:29.178Z,22.80
2022-08-17T06:08:10.912Z,23.08
2022-08-17T06:10:43.909Z,23.08
2022-08-17T06:13:31.694Z,23.21
2022-08-17T06:16:04.587Z,23.46
2022-08-17T06:19:00.047Z,23.47
2022-08-17T06:21:32.014Z,23.68
2022-08-17T06:24:23.903Z,23.80
2022-08-17T06:26:52.947Z,23.96
2022-08-17T06:29:42.142Z,23.89
2022-08-17T06:32:12.752Z,24.15
2022-08-17T06:34:41.787Z,24.12
2022-08-17T06:37:29.935Z,24.21
2022-08-17T06:40:47.358Z,24.28
2022-08-17T06:43:26.196Z,24.53
2022-08-17T06:45:58.954Z,24.39
2022-08-17T06:48:40.748Z,24.51
2022-08-17T06:51:14.297Z,24.61
2022-08-17T06:53:59.644Z,24.61
2022-08-17T06:56:55.257Z,24.60
2022-08-17T06:59:53.247Z,24.88
2022-08-17T07:02:51.288Z,24.97
2022-08-17T07:05:24.252Z,24.98
2022-08-17T07:08:02.132Z,24.81
2022-08-17T07:10:36.411Z,24.98
2022-08-17T07:13:18.184Z,25.09
2022-08-17T07:15:47.214Z,25.10
2022-08-17T07:18:13.866Z,25.28
2022-08-17T07:20:46.697Z,25.36
2022-08-17T07:23:21.113Z,25.37
2022-08-17T07:25:49.218Z,25.49
2022-08-17T07:28:24.506Z,25.73
2022-08-17T07:30:54.203Z,25.83
2022-08-17T07:33:32.891Z,25.69
2022-08-17T07:36:00.352Z,25.86
2022-08-17T07:38:30.165Z,25.76
2022-08-17T07:41:03.363Z,26.44
2022-08-17T07:43:39.243Z,26.66
2022-08-17T07:46:30.175Z,26.87
2022-08-17T07:49:23.133Z,26.89
2022-08-17T07:51:50.470Z,27.22
2022-08-17T07:54:23.187Z,27.34
2022-08-17T07:56:53.181Z,27.02
2022-08-17T07:59:23.091Z,26.72
2022-08-17T08:01:57.490Z,27.11
2022-08-17T08:04:59.845Z,27.35
2022-08-17T08:07:34.743Z,27.02
2022-08-17T08:10:08.004Z,27.47
2022-08-17T08:12:43.467Z,27.83
2022-08-17T08:15:17.386Z,27.97
2022-08-17T08:17:53.282Z,27.99
2022-08-17T08:20:58.289Z,28.37
2022-08-17T08:23:37.307Z,28.40
2022-08-17T08:26:20.465Z,28.56
2022-08-17T08:29:18.195Z,28.51
2022-08-17T08:32:11.284Z,28.42
2022-08-17T08:35:02.204Z,28.37
2022-08-17T08:37:51.018Z,28.29
2022-08-17T08:40:45.162Z,28.50
2022-08-17T08:43:17.827Z,28.79
2022-08-17T08:46:22.992Z,28.87
2022-08-17T08:49:00.175Z,28.49
2022-08-17T08:51:55.624Z,27.75
2022-08-17T08:54:34.595Z,28.64
2022-08-17T08:59:59.701Z,29.45
2022-08-17T09:02:29.093Z,29.22
2022-08-17T09:05:35.631Z,28.76
2022-08-17T09:08:20.288Z,29.26
2022-08-17T09:10:59.827Z,28.41
2022-08-17T09:13:54.287Z,29.48
2022-08-17T09:17:03.222Z,29.39
2022-08-17T09:19:44.839Z,28.48
2022-08-17T09:22:31.507Z,29.04
2022-08-17T09:25:29.007Z,29.66
2022-08-17T09:28:06.477Z,29.48
2022-08-17T09:30:55.317Z,29.58
2022-08-17T09:33:28.472Z,29.64
2022-08-17T09:36:04.348Z,28.99
2022-08-17T09:38:49.020Z,29.89
2022-08-17T09:41:49.132Z,30.08
2022-08-17T09:44:42.741Z,30.35
2022-08-17T09:47:26.152Z,30.01
2022-08-17T09:50:00.400Z,30.22
2022-08-17T09:52:31.246Z,30.35
2022-08-17T09:55:01.023Z,30.57
2022-08-17T09:57:58.098Z,30.00
2022-08-17T10:00:30.806Z,29.59
2022-08-17T10:03:19.854Z,29.75
2022-08-17T10:06:22.359Z,29.98
2022-08-17T10:09:08.452Z,29.97
2022-08-17T10:12:11.180Z,30.17
2022-08-17T10:15:14.898Z,30.59
2022-08-17T10:18:11.550Z,30.49
2022-08-17T10:20:43.972Z,30.71
2022-08-17T10:23:46.990Z,30.38
2022-08-17T10:26:16.890Z,30.12
2022-08-17T10:28:53.324Z,30.56
2022-08-17T10:31:35.767Z,30.49
2022-08-17T10:34:36.159Z,30.34
2022-08-17T10:37:20.141Z,30.05
2022-08-17T10:39:52.634Z,30.06
2022-08-17T10:42:36.733Z,30.70
2022-08-17T10:45:15.482Z,30.57
2022-08-17T10:48:13.103Z,30.99
2022-08-17T10:51:08.813Z,30.55
2022-08-17T10:53:35.426Z,31.03
2022-08-17T10:56:14.295Z,31.44
2022-08-17T10:58:55.141Z,31.49
2022-08-17T11:01:34.167Z,31.12
2022-08-17T11:04:26.923Z,31.26
2022-08-17T11:07:16.033Z,29.98
2022-08-17T11:10:08.309Z,31.51
2022-08-17T11:13:02.010Z,31.22
2022-08-17T11:16:09.456Z,30.91
2022-08-17T11:19:08.565Z,31.28
2022-08-17T11:21:54.385Z,31.52
2022-08-17T11:24:47.881Z,30.97
2022-08-17T11:27:32.991Z,30.92
2022-08-17T11:30:03.041Z,31.21
2022-08-17T11:32:47.419Z,31.87
2022-08-17T11:35:20.635Z,32.06
2022-08-17T11:38:08.624Z,32.08
2022-08-17T11:41:06.125Z,31.47
2022-08-17T11:43:51.291Z,31.04
2022-08-17T11:46:53.941Z,31.88
2022-08-17T11:49:50.750Z,31.51
2022-08-17T11:52:38.569Z,30.72
2022-08-17T11:55:34.131Z,31.00
2022-08-17T11:58:18.807Z,30.80
2022-08-17T12:00:45.450Z,31.49
2022-08-17T12:03:32.956Z,31.18
2022-08-17T12:06:23.372Z,31.43
2022-08-17T12:09:06.970Z,32.00
2022-08-17T12:11:56.359Z,31.01
2022-08-17T12:14:51.651Z,30.97
2022-08-17T12:17:39.706Z,31.89
2022-08-17T12:20:14.448Z,31.94
2022-08-17T12:23:07.197Z,32.48
2022-08-17T12:25:46.681Z,31.92
2022-08-17T12:28:33.259Z,32.16
2022-08-17T12:31:03.758Z,31.84
2022-08-17T12:33:30.836Z,31.59
2022-08-17T12:36:03.993Z,31.77
2022-08-17T12:38:34.711Z,32.15
2022-08-17T12:41:23.859Z,31.89
2022-08-17T12:44:25.816Z,31.99
2022-08-17T12:46:55.538Z,31.49
2022-08-17T12:49:30.733Z,31.73
2022-08-17T12:52:04.711Z,31.58
2022-08-17T12:54:51.004Z,31.12
2022-08-17T12:57:19.961Z,31.10
2022-08-17T12:59:51.409Z,31.15
2022-08-17T13:02:32.590Z,31.57
2022-08-17T13:05:01.243Z,31.50
2022-08-17T13:07:35.419Z,31.50
2022-08-17T13:10:03.501Z,31.95
2022-08-17T13:12:33.772Z,31.48
2022-08-17T13:15:00.940Z,31.76
2022-08-17T13:17:34.778Z,31.94
2022-08-17T13:20:03.536Z,31.47
2022-08-17T13:22:32.394Z,31.41
2022-08-17T13:25:07.063Z,31.69
2022-08-17T13:27:34.043Z,32.00
2022-08-17T13:30:07.444Z,32.20
2022-08-17T13:32:43.595Z,32.46
2022-08-17T13:35:29.579Z,32.33
2022-08-17T13:38:04.433Z,31.88
2022-08-17T13:40:37.719Z,31.85
2022-08-17T13:43:05.065Z,31.99
2022-08-17T13:45:38.862Z,32.42
2022-08-17T13:48:12.391Z,32.53
2022-08-17T13:51:00.745Z,32.38
2022-08-17T13:53:30.032Z,31.70
2022-08-17T13:56:37.558Z,31.28
2022-08-17T13:59:05.989Z,31.86
2022-08-17T14:01:42.104Z,31.40
2022-08-17T14:04:14.691Z,31.18
2022-08-17T14:07:03.955Z,31.44
2022-08-17T14:09:58.256Z,32.05
2022-08-17T14:12:29.434Z,31.46
2022-08-17T14:14:56.552Z,32.21
2022-08-17T14:17:24.156Z,32.38
2022-08-17T14:19:51.586Z,32.29
2022-08-17T14:22:33.685Z,32.06
2022-08-17T14:25:03.879Z,31.81
2022-08-17T14:27:34.019Z,32.37
2022-08-17T14:30:10.820Z,32.11
2022-08-17T14:32:41.307Z,32.08
2022-08-17T14:35:10.007Z,31.81
2022-08-17T14:37:37.041Z,32.03
2022-08-17T14:40:08.131Z,32.34
2022-08-17T14:42:36.938Z,32.12
2022-08-17T14:45:06.155Z,32.38
2022-08-17T14:47:52.880Z,32.37
2022-08-17T14:50:22.685Z,32.50
2022-08-17T14:52:50.611Z,32.40
2022-08-17T14:55:18.353Z,32.39
2022-08-17T14:57:45.325Z,32.59
2022-08-17T15:00:12.931Z,32.47
2022-08-17T15:02:51.711Z,32.54
2022-08-17T15:05:18.495Z,32.28
2022-08-17T15:07:45.133Z,32.29
2022-08-17T15:10:16.380Z,32.36
2022-08-17T15:12:43.756Z,31.86
2022-08-17T15:15:13.082Z,31.78
2022-08-17T15:17:54.596Z,31.73
2022-08-17T15:20:24.717Z,31.95
2022-08-17T15:22:55.907Z,32.15
2022-08-17T15:25:24.961Z,32.39
2022-08-17T15:27:52.025Z,32.31
2022-08-17T15:30:19.133Z,32.12
2022-08-17T15:32:51.470Z,32.35
2022-08-17T15:35:28.097Z,32.22
2022-08-17T15:38:11.604Z,32.00
2022-08-17T15:40:44.502Z,32.42
2022-08-17T15:43:20.058Z,32.29
2022-08-17T15:45:59.749Z,32.09
2022-08-17T15:48:41.205Z,31.79
2022-08-17T15:51:08.944Z,31.30
2022-08-17T15:53:35.941Z,31.41
2022-08-17T15:56:03.293Z,31.56
2022-08-17T15:58:33.314Z,31.22
2022-08-17T16:01:18.815Z,30.60
2022-08-17T16:04:04.593Z,30.53
2022-08-17T16:06:34.503Z,30.32
2022-08-17T16:09:01.357Z,30.07
2022-08-17T16:11:28.112Z,30.07
2022-08-17T16:13:56.141Z,29.73
2022-08-17T16:16:23.762Z,29.60
2022-08-17T16:18:55.673Z,29.56
2022-08-17T16:21:26.986Z,29.86
2022-08-17T16:23:57.981Z,29.90
2022-08-17T16:26:24.776Z,29.63
2022-08-17T16:28:52.170Z,29.67
2022-08-17T16:31:18.879Z,29.50
2022-08-17T16:34:16.307Z,29.45
2022-08-17T16:36:32.400Z,29.45
2022-08-17T16:39:00.523Z,29.46
2022-08-17T16:41:45.724Z,29.38
2022-08-17T16:44:17.497Z,29.14
2022-08-17T16:46:46.222Z,28.85
2022-08-17T16:49:35.112Z,28.80
2022-08-17T16:52:03.812Z,28.49
2022-08-17T16:54:30.650Z,28.36
2022-08-17T16:56:57.372Z,28.24
2022-08-17T16:59:31.213Z,28.00
2022-08-17T17:02:10.904Z,27.83
2022-08-17T17:04:53.250Z,27.69
2022-08-17T17:07:53.792Z,27.61
2022-08-17T17:10:24.552Z,27.62
2022-08-17T17:13:01.859Z,27.63
2022-08-17T17:15:54.280Z,27.56
2022-08-17T17:18:30.189Z,27.49
2022-08-17T17:20:58.046Z,27.37
2022-08-17T17:23:30.488Z,27.39
2022-08-17T17:26:15.866Z,27.49
2022-08-17T17:28:58.365Z,27.53
2022-08-17T17:31:39.469Z,27.42
2022-08-17T17:34:10.138Z,27.40
2022-08-17T17:36:42.472Z,27.41
2022-08-17T17:39:17.760Z,27.24
2022-08-17T17:41:59.127Z,27.16
2022-08-17T17:44:32.182Z,27.24
2022-08-17T17:47:01.631Z,27.11
2022-08-17T17:49:35.121Z,27.13
2022-08-17T17:52:07.821Z,26.99
2022-08-17T17:54:43.987Z,27.06
2022-08-17T17:57:35.316Z,27.08
2022-08-17T18:00:14.779Z,27.08
2022-08-17T18:03:00.156Z,27.01
2022-08-17T18:06:01.348Z,26.93
2022-08-17T18:08:53.240Z,26.99
2022-08-17T18:11:42.059Z,26.96
2022-08-17T18:14:39.723Z,26.75
2022-08-17T18:17:06.849Z,26.87
2022-08-17T18:19:33.624Z,26.77
2022-08-17T18:22:14.507Z,26.72
2022-08-17T18:24:44.214Z,26.69
2022-08-17T18:27:33.194Z,26.68
2022-08-17T18:30:15.166Z,26.74
2022-08-17T18:32:44.446Z,26.66
2022-08-17T18:35:11.041Z,26.61
2022-08-17T18:37:45.072Z,26.09
2022-08-17T18:40:18.374Z,25.60
2022-08-17T18:43:00.274Z,25.31
2022-08-17T18:45:35.883Z,24.99
2022-08-17T18:48:03.210Z,24.70
2022-08-17T18:50:41.401Z,24.64
2022-08-17T18:53:19.648Z,24.51
2022-08-17T18:55:46.506Z,24.45
2022-08-17T18:58:24.146Z,24.25
2022-08-17T19:00:51.408Z,24.19
2022-08-17T19:03:18.071Z,24.41
2022-08-17T19:05:46.327Z,24.74
2022-08-17T19:08:28.375Z,24.98
2022-08-17T19:11:23.666Z,24.99
2022-08-17T19:14:06.509Z,25.11
2022-08-17T19:16:42.155Z,25.12
2022-08-17T19:19:51.052Z,25.19
2022-08-17T19:22:28.633Z,25.07
2022-08-17T19:25:10.803Z,25.15
2022-08-17T19:27:57.649Z,25.15
2022-08-17T19:30:25.377Z,25.14
2022-08-17T19:32:53.062Z,25.13
2022-08-17T19:35:22.794Z,24.88
2022-08-17T19:38:04.877Z,24.88
2022-08-17T19:41:06.990Z,24.70
2022-08-17T19:43:42.702Z,24.66
2022-08-17T19:46:35.657Z,24.68
2022-08-17T19:49:22.333Z,24.71
2022-08-17T19:52:30.319Z,24.72
2022-08-17T19:55:04.779Z,24.65
2022-08-17T19:58:00.671Z,24.60
2022-08-17T20:00:31.031Z,24.50
2022-08-17T20:03:22.103Z,24.58
2022-08-17T20:06:14.074Z,24.54
2022-08-17T20:08:58.408Z,24.43
2022-08-17T20:11:34.276Z,24.47
2022-08-17T20:14:12.531Z,24.32
2022-08-17T20:16:39.383Z,24.40
2022-08-17T20:19:31.703Z,24.29
2022-08-17T20:22:10.479Z,24.30
2022-08-17T20:24:54.187Z,24.26
2022-08-17T20:27:26.375Z,24.37
2022-08-17T20:30:10.409Z,24.38
2022-08-17T20:32:52.817Z,24.34
2022-08-17T20:35:26.431Z,24.25
2022-08-17T20:37:58.333Z,24.23
2022-08-17T20:40:31.786Z,24.18
2022-08-17T20:42:59.378Z,24.17
2022-08-17T20:45:28.606Z,24.14
2022-08-17T20:48:26.070Z,24.19
2022-08-17T20:50:57.469Z,24.29
2022-08-17T20:53:53.666Z,24.34
2022-08-17T20:56:50.025Z,24.17
2022-08-17T20:59:25.979Z,24.07
2022-08-17T21:02:18.074Z,23.88
2022-08-17T21:05:00.190Z,23.91
2022-08-17T21:07:30.003Z,23.81
2022-08-17T21:10:16.223Z,23.67
2022-08-17T21:12:56.693Z,23.27
2022-08-17T21:15:39.908Z,22.98
2022-08-17T21:18:25.953Z,22.94
2022-08-17T21:21:04.385Z,23.02
2022-08-17T21:23:36.647Z,22.90
2022-08-17T21:26:21.131Z,22.69
2022-08-17T21:29:29.524Z,22.70
2022-08-17T21:32:03.764Z,22.54
2022-08-17T21:34:43.816Z,22.37
2022-08-17T21:37:19.842Z,22.32
2022-08-17T21:39:53.273Z,22.41
2022-08-17T21:42:29.096Z,22.15
2022-08-17T21:45:00.596Z,21.96
2022-08-17T21:47:30.345Z,21.93
2022-08-17T21:50:20.018Z,21.77
2022-08-17T21:52:49.997Z,21.73
2022-08-17T21:55:28.125Z,21.62
2022-08-17T21:58:13.769Z,21.72
2022-08-17T22:00:41.242Z,21.67
2022-08-17T22:03:23.585Z,21.44
2022-08-17T22:05:51.482Z,21.60
2022-08-17T22:08:24.535Z,21.67
2022-08-17T22:10:59.820Z,21.59
2022-08-17T22:13:29.473Z,21.42
2022-08-17T22:16:15.532Z,21.19
2022-08-17T22:18:53.676Z,20.85
2022-08-17T22:21:22.475Z,20.58
2022-08-17T22:24:15.379Z,20.60
2022-08-17T22:27:00.318Z,20.76
2022-08-17T22:29:57.571Z,20.78
2022-08-17T22:32:44.573Z,20.87
2022-08-17T22:35:32.810Z,20.86
2022-08-17T22:38:18.332Z,20.81
2022-08-17T22:40:52.097Z,20.84
2022-08-17T22:43:26.373Z,21.09
2022-08-17T22:45:57.520Z,20.92
2022-08-17T22:48:27.959Z,20.71
2022-08-17T22:51:17.371Z,20.78
2022-08-17T22:54:12.672Z,20.74
2022-08-17T22:57:07.479Z,20.82
2022-08-17T22:59:45.978Z,20.71
2022-08-17T23:02:20.756Z,20.71
2022-08-17T23:04:55.585Z,20.71
2022-08-17T23:07:22.444Z,20.76
2022-08-17T23:09:51.134Z,20.64
2022-08-17T23:12:26.708Z,20.52
2022-08-17T23:15:00.572Z,20.81
2022-08-17T23:17:37.262Z,20.67
2022-08-17T23:20:08.298Z,20.62
2022-08-17T23:22:37.928Z,20.70
2022-08-17T23:25:26.815Z,20.62
2022-08-17T23:27:54.477Z,20.48
2022-08-17T23:30:24.901Z,20.44
2022-08-17T23:32:53.824Z,20.39
2022-08-17T23:35:39.033Z,20.29
2022-08-17T23:38:09.837Z,20.29
2022-08-17T23:40:37.801Z,20.29
2022-08-17T23:43:24.506Z,20.29
2022-08-17T23:45:54.713Z,20.39
2022-08-17T23:48:28.545Z,20.45
2022-08-17T23:51:09.089Z,20.13
2022-08-17T23:53:37.374Z,20.03
2022-08-17T23:56:10.482Z,19.99
2022-08-17T23:58:42.344Z,19.82
